createdAt,value
2023-05-13T00:01:39.015Z,9.48
2023-05-13T00:04:09.760Z,9.48
2023-05-13T00:06:41.266Z,9.46
2023-05-13T00:09:10.417Z,9.47
2023-05-13T00:11:41.305Z,9.50
2023-05-13T00:14:12.505Z,9.52
2023-05-13T00:16:41.516Z,9.53
2023-05-13T00:19:12.668Z,9.56
2023-05-13T00:21:44.965Z,9.53
2023-05-13T00:24:13.901Z,9.49
2023-05-13T00:26:43.096Z,9.46
2023-05-13T00:29:12.288Z,9.46
2023-05-13T00:31:41.728Z,9.47
2023-05-13T00:34:11.648Z,9.48
2023-05-13T00:36:43.798Z,9.48
2023-05-13T00:39:13.718Z,9.48
2023-05-13T00:41:43.198Z,9.47
2023-05-13T00:44:15.084Z,9.44
2023-05-13T00:46:45.443Z,9.38
2023-05-13T00:49:14.277Z,9.37
2023-05-13T00:51:44.505Z,9.36
2023-05-13T00:54:16.444Z,9.34
2023-05-13T00:56:46.137Z,9.34
2023-05-13T00:59:17.697Z,9.33
2023-05-13T01:01:56.090Z,9.28
2023-05-13T01:04:26.408Z,9.19
2023-05-13T01:06:55.716Z,9.07
2023-05-13T01:09:27.567Z,8.97
2023-05-13T01:12:02.084Z,8.90
2023-05-13T01:14:36.062Z,8.86
2023-05-13T01:17:21.253Z,8.85
2023-05-13T01:19:52.920Z,8.86
2023-05-13T01:22:22.140Z,8.87
2023-05-13T01:24:51.122Z,8.94
2023-05-13T01:27:20.663Z,9.01
2023-05-13T01:29:52.173Z,9.07
2023-05-13T01:32:25.033Z,9.11
2023-05-13T01:34:54.392Z,9.05
2023-05-13T01:37:23.884Z,8.96
2023-05-13T01:39:54.009Z,8.86
2023-05-13T01:42:27.180Z,8.70
2023-05-13T01:44:56.829Z,8.53
2023-05-13T01:47:27.513Z,8.39
2023-05-13T01:49:56.541Z,8.32
2023-05-13T01:52:27.128Z,8.28
2023-05-13T01:54:55.997Z,8.20
2023-05-13T01:57:25.140Z,8.08
2023-05-13T01:59:55.031Z,8.02
2023-05-13T02:02:24.314Z,7.96
2023-05-13T02:04:53.514Z,7.92
2023-05-13T02:07:22.684Z,7.88
2023-05-13T02:09:55.778Z,7.82
2023-05-13T02:12:24.851Z,7.80
2023-05-13T02:14:58.272Z,7.80
2023-05-13T02:17:28.491Z,7.84
2023-05-13T02:19:58.215Z,7.84
2023-05-13T02:22:27.066Z,7.88
2023-05-13T02:24:56.365Z,7.92
2023-05-13T02:27:27.749Z,7.94
2023-05-13T02:29:56.840Z,7.98
2023-05-13T02:32:28.073Z,8.00
2023-05-13T02:34:57.755Z,8.01
2023-05-13T02:37:27.691Z,7.99
2023-05-13T02:40:01.641Z,7.97
2023-05-13T02:42:30.878Z,7.95
2023-05-13T02:45:01.457Z,7.95
2023-05-13T02:47:32.082Z,7.98
2023-05-13T02:50:06.338Z,8.00
2023-05-13T02:52:36.346Z,8.03
2023-05-13T02:55:11.034Z,8.10
2023-05-13T02:57:39.900Z,8.12
2023-05-13T03:00:10.291Z,8.13
2023-05-13T03:02:43.745Z,8.14
2023-05-13T03:05:19.827Z,8.13
2023-05-13T03:07:50.418Z,8.15
2023-05-13T03:10:20.461Z,8.17
2023-05-13T03:12:51.259Z,8.18
2023-05-13T03:15:21.612Z,8.21
2023-05-13T03:17:51.026Z,8.22
2023-05-13T03:20:21.474Z,8.25
2023-05-13T03:22:51.911Z,8.30
2023-05-13T03:25:21.753Z,8.34
2023-05-13T03:27:54.888Z,8.34
2023-05-13T03:30:25.812Z,8.36
2023-05-13T03:33:07.374Z,8.40
2023-05-13T03:35:36.956Z,8.45
2023-05-13T03:38:07.879Z,8.49
2023-05-13T03:40:39.146Z,8.52
2023-05-13T03:43:10.742Z,8.58
2023-05-13T03:45:41.441Z,8.65
2023-05-13T03:48:13.140Z,8.75
2023-05-13T03:50:42.183Z,8.83
2023-05-13T03:53:12.469Z,8.94
2023-05-13T03:55:42.384Z,9.09
2023-05-13T03:58:15.432Z,9.15
2023-05-13T04:00:48.796Z,9.24
2023-05-13T04:03:19.626Z,9.35
2023-05-13T04:05:49.029Z,9.44
2023-05-13T04:08:20.462Z,9.54
2023-05-13T04:10:49.848Z,9.64
2023-05-13T04:13:20.216Z,9.75
2023-05-13T04:15:51.433Z,9.87
2023-05-13T04:18:20.696Z,9.97
2023-05-13T04:20:49.575Z,10.11
2023-05-13T04:23:18.304Z,10.26
2023-05-13T04:25:52.694Z,10.42
2023-05-13T04:28:21.625Z,10.56
2023-05-13T04:30:52.117Z,10.73
2023-05-13T04:33:21.601Z,10.89
2023-05-13T04:35:51.253Z,11.03
2023-05-13T04:38:22.542Z,11.15
2023-05-13T04:40:52.508Z,11.27
2023-05-13T04:43:32.564Z,11.42
2023-05-13T04:46:02.795Z,11.56
2023-05-13T04:48:32.989Z,11.70
2023-05-13T04:51:03.080Z,11.83
2023-05-13T04:53:33.419Z,11.98
2023-05-13T04:56:05.355Z,12.16
2023-05-13T04:58:34.265Z,12.32
2023-05-13T05:01:04.368Z,12.47
2023-05-13T05:03:33.993Z,12.61
2023-05-13T05:06:03.949Z,12.79
2023-05-13T05:08:34.910Z,12.99
2023-05-13T05:11:04.283Z,13.17
2023-05-13T05:13:35.539Z,13.33
2023-05-13T05:16:04.590Z,13.47
2023-05-13T05:18:33.950Z,13.62
2023-05-13T05:21:03.638Z,13.76
2023-05-13T05:23:33.107Z,13.90
2023-05-13T05:26:11.859Z,14.03
2023-05-13T05:28:46.491Z,14.18
2023-05-13T05:31:15.718Z,14.35
2023-05-13T05:33:45.814Z,14.53
2023-05-13T05:36:15.700Z,14.70
2023-05-13T05:38:44.473Z,14.83
2023-05-13T05:41:14.429Z,14.95
2023-05-13T05:43:43.137Z,15.12
2023-05-13T05:46:13.910Z,15.29
2023-05-13T05:48:43.022Z,15.48
2023-05-13T05:51:13.126Z,15.63
2023-05-13T05:53:42.737Z,15.77
2023-05-13T05:56:13.796Z,15.92
2023-05-13T05:58:44.292Z,16.07
2023-05-13T06:01:13.794Z,16.23
2023-05-13T06:03:44.284Z,16.40
2023-05-13T06:06:13.222Z,16.55
2023-05-13T06:08:42.344Z,16.67
2023-05-13T06:11:11.071Z,16.78
2023-05-13T06:13:40.134Z,16.95
2023-05-13T06:16:10.205Z,17.10
2023-05-13T06:18:40.076Z,17.27
2023-05-13T06:21:08.849Z,17.44
2023-05-13T06:23:38.238Z,17.62
2023-05-13T06:26:08.268Z,17.75
2023-05-13T06:28:38.650Z,17.91
2023-05-13T06:31:09.903Z,18.03
2023-05-13T06:33:41.293Z,18.11
2023-05-13T06:36:10.066Z,18.26
2023-05-13T06:38:41.488Z,18.40
2023-05-13T06:41:12.071Z,18.51
2023-05-13T06:43:42.756Z,18.61
2023-05-13T06:46:22.420Z,18.77
2023-05-13T06:48:53.990Z,18.91
2023-05-13T06:51:25.373Z,19.05
2023-05-13T06:53:54.563Z,19.21
2023-05-13T06:56:24.102Z,19.33
2023-05-13T06:58:53.442Z,19.50
2023-05-13T07:01:22.240Z,19.66
2023-05-13T07:03:52.246Z,19.85
2023-05-13T07:06:21.588Z,20.05
2023-05-13T07:08:51.421Z,20.26
2023-05-13T07:11:21.590Z,20.45
2023-05-13T07:13:50.514Z,20.63
2023-05-13T07:16:21.958Z,20.74
2023-05-13T07:18:52.917Z,20.80
2023-05-13T07:21:23.188Z,20.85
2023-05-13T07:23:52.949Z,21.07
2023-05-13T07:26:22.197Z,21.43
2023-05-13T07:28:50.987Z,23.14
2023-05-13T07:31:19.975Z,25.51
2023-05-13T07:33:49.034Z,27.35
2023-05-13T07:36:17.842Z,28.96
2023-05-13T07:38:46.589Z,30.30
2023-05-13T07:41:16.540Z,31.51
2023-05-13T07:43:45.774Z,32.39
2023-05-13T07:46:14.609Z,32.86
2023-05-13T07:48:43.833Z,33.19
2023-05-13T07:51:12.642Z,33.61
2023-05-13T07:53:42.031Z,34.11
2023-05-13T07:56:10.879Z,35.01
2023-05-13T07:58:41.060Z,35.88
2023-05-13T08:01:11.341Z,36.37
2023-05-13T08:03:40.656Z,37.08
2023-05-13T08:06:09.657Z,36.93
2023-05-13T08:08:38.992Z,36.48
2023-05-13T08:11:09.678Z,36.42
2023-05-13T08:13:38.870Z,36.33
2023-05-13T08:16:08.855Z,36.84
2023-05-13T08:18:38.413Z,37.28
2023-05-13T08:21:07.257Z,37.36
2023-05-13T08:23:44.811Z,37.58
2023-05-13T08:26:14.363Z,37.26
2023-05-13T08:28:43.239Z,37.01
2023-05-13T08:31:13.108Z,37.15
2023-05-13T08:33:46.512Z,37.52
2023-05-13T08:36:16.565Z,37.50
2023-05-13T08:38:46.246Z,37.72
2023-05-13T08:41:15.857Z,38.08
2023-05-13T08:43:47.408Z,37.88
2023-05-13T08:46:17.418Z,37.76
2023-05-13T08:48:47.562Z,37.31
2023-05-13T08:51:16.999Z,37.70
2023-05-13T08:53:46.700Z,37.75
2023-05-13T08:56:15.793Z,37.69
2023-05-13T08:58:45.042Z,37.34
2023-05-13T09:01:14.080Z,37.13
2023-05-13T09:03:53.403Z,37.57
2023-05-13T09:06:22.910Z,38.50
2023-05-13T09:08:53.285Z,38.94
2023-05-13T09:11:22.938Z,38.34
2023-05-13T09:14:03.231Z,37.02
2023-05-13T09:16:33.483Z,36.31
2023-05-13T09:19:06.381Z,36.34
2023-05-13T09:21:38.628Z,36.21
2023-05-13T09:24:18.847Z,35.93
2023-05-13T09:26:49.992Z,35.51
2023-05-13T09:29:27.349Z,35.23
2023-05-13T09:31:58.183Z,34.72
2023-05-13T09:34:31.888Z,34.13
2023-05-13T09:37:03.797Z,33.64
2023-05-13T09:39:34.175Z,33.59
2023-05-13T09:42:05.097Z,33.07
2023-05-13T09:44:34.744Z,32.59
2023-05-13T09:47:05.015Z,32.38
2023-05-13T09:49:34.219Z,31.78
2023-05-13T09:52:05.127Z,31.42
2023-05-13T09:54:39.411Z,31.18
2023-05-13T09:57:08.516Z,30.86
2023-05-13T09:59:39.247Z,30.14
2023-05-13T10:02:10.738Z,29.88
2023-05-13T10:04:40.595Z,29.63
2023-05-13T10:07:10.137Z,29.66
2023-05-13T10:09:39.729Z,29.66
2023-05-13T10:12:12.083Z,29.36
2023-05-13T10:14:42.390Z,29.46
2023-05-13T10:17:13.370Z,29.64
2023-05-13T10:19:42.943Z,29.83
2023-05-13T10:22:14.707Z,30.07
2023-05-13T10:24:45.681Z,29.44
2023-05-13T10:27:16.321Z,28.63
2023-05-13T10:30:15.393Z,28.04
2023-05-13T10:32:44.213Z,27.69
2023-05-13T10:35:18.341Z,27.75
2023-05-13T10:37:49.857Z,27.82
2023-05-13T10:40:30.138Z,27.88
2023-05-13T10:43:14.862Z,27.82
2023-05-13T10:45:49.737Z,27.85
2023-05-13T10:48:22.059Z,27.96
2023-05-13T10:50:57.008Z,28.25
2023-05-13T10:53:29.162Z,28.50
2023-05-13T10:56:03.424Z,28.37
2023-05-13T10:58:34.652Z,28.39
2023-05-13T11:01:34.402Z,28.14
2023-05-13T11:04:05.243Z,27.76
2023-05-13T11:06:39.014Z,27.31
2023-05-13T11:09:16.053Z,26.37
2023-05-13T11:11:48.177Z,25.59
2023-05-13T11:14:36.994Z,25.32
2023-05-13T11:17:12.124Z,25.84
2023-05-13T11:19:48.064Z,26.37
2023-05-13T11:22:21.333Z,26.78
2023-05-13T11:25:12.305Z,26.66
2023-05-13T11:27:44.425Z,26.58
2023-05-13T11:31:08.345Z,27.25
2023-05-13T11:33:56.337Z,27.65
2023-05-13T11:36:30.317Z,27.51
2023-05-13T11:39:06.961Z,27.51
2023-05-13T11:41:36.910Z,27.17
2023-05-13T11:44:07.284Z,26.83
2023-05-13T11:46:37.342Z,26.46
2023-05-13T11:49:08.165Z,25.96
2023-05-13T11:51:41.518Z,25.45
2023-05-13T11:54:13.603Z,25.19
2023-05-13T11:56:44.823Z,24.89
2023-05-13T11:59:17.729Z,25.04
2023-05-13T12:01:48.406Z,25.24
2023-05-13T12:04:20.543Z,24.84
2023-05-13T12:06:51.210Z,24.53
2023-05-13T12:09:26.971Z,24.49
2023-05-13T12:11:56.016Z,24.47
2023-05-13T12:14:29.395Z,24.52
2023-05-13T12:16:59.284Z,24.79
2023-05-13T12:19:33.185Z,25.12
2023-05-13T12:22:05.476Z,25.22
2023-05-13T12:24:39.180Z,25.48
2023-05-13T12:27:11.279Z,25.52
2023-05-13T12:30:08.041Z,25.62
2023-05-13T12:32:47.204Z,26.35
2023-05-13T12:35:16.521Z,26.89
2023-05-13T12:37:59.656Z,27.20
2023-05-13T12:43:23.061Z,26.21
2023-05-13T12:45:55.191Z,26.32
2023-05-13T12:48:25.980Z,26.42
2023-05-13T12:50:56.943Z,26.55
2023-05-13T12:53:26.995Z,26.48
2023-05-13T12:55:57.748Z,26.58
2023-05-13T12:58:27.068Z,26.66
2023-05-13T13:00:58.805Z,26.86
2023-05-13T13:03:30.857Z,27.14
2023-05-13T13:06:01.640Z,27.19
2023-05-13T13:08:31.198Z,27.41
2023-05-13T13:11:01.028Z,27.25
2023-05-13T13:13:30.113Z,27.15
2023-05-13T13:16:03.362Z,27.04
2023-05-13T13:18:36.157Z,27.28
2023-05-13T13:21:06.391Z,27.75
2023-05-13T13:23:39.477Z,28.10
2023-05-13T13:26:17.623Z,28.01
2023-05-13T13:28:51.626Z,27.60
2023-05-13T13:31:25.663Z,27.07
2023-05-13T13:33:57.748Z,26.44
2023-05-13T13:36:31.439Z,25.91
2023-05-13T13:39:07.007Z,25.52
2023-05-13T13:41:38.217Z,25.33
2023-05-13T13:44:08.758Z,25.10
2023-05-13T13:46:37.859Z,24.78
2023-05-13T13:49:22.683Z,24.53
2023-05-13T13:51:53.782Z,24.15
2023-05-13T13:54:23.865Z,23.91
2023-05-13T13:56:57.658Z,23.83
2023-05-13T13:59:26.952Z,23.97
2023-05-13T14:01:58.062Z,24.15
2023-05-13T14:04:31.155Z,24.48
2023-05-13T14:07:03.370Z,24.58
2023-05-13T14:09:36.049Z,24.94
2023-05-13T14:12:06.089Z,25.55
2023-05-13T14:14:35.480Z,26.18
2023-05-13T14:17:05.324Z,26.79
2023-05-13T14:19:35.335Z,27.34
2023-05-13T14:22:07.153Z,27.84
2023-05-13T14:24:37.917Z,28.21
2023-05-13T14:27:09.765Z,28.34
2023-05-13T14:29:39.169Z,28.14
2023-05-13T14:32:09.947Z,27.11
2023-05-13T14:34:39.367Z,25.95
2023-05-13T14:37:11.756Z,24.78
2023-05-13T14:39:40.968Z,24.00
2023-05-13T14:42:13.762Z,23.45
2023-05-13T14:44:44.396Z,23.02
2023-05-13T14:47:13.493Z,22.61
2023-05-13T14:49:43.554Z,22.18
2023-05-13T14:52:14.360Z,21.80
2023-05-13T14:54:45.193Z,21.56
2023-05-13T14:57:14.775Z,21.38
2023-05-13T14:59:43.641Z,21.36
2023-05-13T15:02:17.807Z,21.45
2023-05-13T15:04:50.959Z,21.68
2023-05-13T15:07:20.090Z,21.89
2023-05-13T15:09:50.804Z,22.03
2023-05-13T15:12:22.327Z,22.06
2023-05-13T15:14:52.634Z,22.04
2023-05-13T15:17:23.002Z,22.07
2023-05-13T15:19:51.955Z,22.09
2023-05-13T15:22:20.941Z,22.18
2023-05-13T15:24:51.416Z,22.28
2023-05-13T15:27:20.654Z,22.30
2023-05-13T15:29:55.552Z,22.28
2023-05-13T15:32:27.544Z,22.23
2023-05-13T15:34:57.225Z,22.24
2023-05-13T15:37:26.171Z,22.20
2023-05-13T15:39:55.538Z,22.09
2023-05-13T15:42:26.087Z,22.04
2023-05-13T15:44:57.784Z,22.05
2023-05-13T15:47:29.971Z,22.06
2023-05-13T15:50:00.577Z,22.03
2023-05-13T15:52:30.501Z,21.94
2023-05-13T15:55:00.978Z,21.88
2023-05-13T15:57:30.700Z,21.79
2023-05-13T16:00:03.760Z,21.71
2023-05-13T16:02:39.503Z,21.76
2023-05-13T16:05:12.541Z,21.78
2023-05-13T16:07:42.969Z,21.86
2023-05-13T16:10:12.295Z,21.83
2023-05-13T16:12:41.387Z,21.85
2023-05-13T16:15:11.751Z,21.81
2023-05-13T16:17:41.186Z,21.75
2023-05-13T16:20:11.769Z,21.84
2023-05-13T16:22:41.912Z,21.97
2023-05-13T16:25:15.045Z,21.98
2023-05-13T16:27:47.429Z,21.95
2023-05-13T16:30:18.347Z,21.88
2023-05-13T16:32:49.327Z,21.86
2023-05-13T16:35:18.049Z,21.83
2023-05-13T16:37:48.823Z,21.82
2023-05-13T16:40:17.660Z,21.77
2023-05-13T16:42:47.281Z,21.77
2023-05-13T16:45:16.730Z,21.73
2023-05-13T16:47:45.687Z,21.68
2023-05-13T16:50:14.945Z,21.64
2023-05-13T16:52:45.563Z,21.67
2023-05-13T16:55:14.384Z,21.74
2023-05-13T16:57:44.114Z,21.82
2023-05-13T17:00:14.961Z,21.90
2023-05-13T17:02:44.041Z,21.93
2023-05-13T17:05:13.437Z,21.96
2023-05-13T17:07:44.269Z,21.97
2023-05-13T17:10:14.616Z,22.01
2023-05-13T17:12:44.071Z,22.03
2023-05-13T17:15:13.600Z,22.02
2023-05-13T17:17:42.382Z,21.97
2023-05-13T17:20:11.634Z,21.89
2023-05-13T17:22:45.782Z,21.77
2023-05-13T17:25:15.278Z,21.74
2023-05-13T17:27:45.587Z,21.74
2023-05-13T17:30:16.058Z,21.70
2023-05-13T17:32:45.107Z,21.68
2023-05-13T17:35:14.425Z,21.66
2023-05-13T17:37:43.302Z,21.65
2023-05-13T17:40:12.504Z,21.61
2023-05-13T17:42:41.776Z,21.55
2023-05-13T17:45:11.561Z,21.44
2023-05-13T17:47:42.247Z,21.27
2023-05-13T17:50:11.378Z,21.12
2023-05-13T17:52:40.993Z,20.91
2023-05-13T17:55:11.054Z,20.72
2023-05-13T17:57:42.320Z,20.63
2023-05-13T18:00:14.750Z,20.54
2023-05-13T18:02:43.926Z,20.40
2023-05-13T18:05:14.117Z,20.26
2023-05-13T18:07:43.288Z,20.12
2023-05-13T18:10:12.477Z,19.98
2023-05-13T18:12:41.263Z,19.90
2023-05-13T18:15:10.849Z,19.79
2023-05-13T18:17:41.128Z,19.70
2023-05-13T18:20:10.560Z,19.60
2023-05-13T18:22:39.876Z,19.43
2023-05-13T18:25:10.557Z,19.36
2023-05-13T18:27:39.780Z,19.26
2023-05-13T18:30:11.012Z,19.18
2023-05-13T18:32:40.510Z,19.12
2023-05-13T18:35:10.050Z,19.08
2023-05-13T18:37:41.328Z,19.00
2023-05-13T18:40:10.981Z,18.92
2023-05-13T18:42:40.564Z,18.83
2023-05-13T18:45:10.382Z,18.69
2023-05-13T18:47:40.990Z,18.44
2023-05-13T18:50:11.824Z,18.21
2023-05-13T18:52:43.035Z,18.15
2023-05-13T18:55:15.363Z,18.08
2023-05-13T18:57:46.907Z,18.01
2023-05-13T19:00:18.265Z,17.91
2023-05-13T19:02:51.717Z,17.69
2023-05-13T19:05:21.751Z,17.43
2023-05-13T19:07:50.499Z,17.27
2023-05-13T19:10:20.446Z,17.14
2023-05-13T19:12:49.506Z,17.04
2023-05-13T19:15:23.470Z,16.93
2023-05-13T19:17:55.188Z,16.85
2023-05-13T19:20:26.225Z,16.79
2023-05-13T19:22:55.727Z,16.73
2023-05-13T19:25:26.264Z,16.67
2023-05-13T19:27:57.365Z,16.62
2023-05-13T19:30:29.565Z,16.52
2023-05-13T19:32:59.808Z,16.44
2023-05-13T19:35:29.749Z,16.36
2023-05-13T19:37:59.931Z,16.26
2023-05-13T19:40:32.146Z,16.16
2023-05-13T19:43:05.455Z,16.06
2023-05-13T19:45:37.969Z,15.93
2023-05-13T19:48:09.076Z,15.75
2023-05-13T19:50:43.737Z,15.64
2023-05-13T19:53:17.904Z,15.53
2023-05-13T19:55:47.942Z,15.46
2023-05-13T19:58:17.304Z,15.42
2023-05-13T20:00:47.235Z,15.36
2023-05-13T20:03:18.755Z,15.29
2023-05-13T20:05:49.524Z,15.21
2023-05-13T20:08:22.695Z,15.15
2023-05-13T20:10:51.887Z,15.09
2023-05-13T20:13:20.687Z,15.01
2023-05-13T20:15:51.914Z,14.94
2023-05-13T20:18:22.191Z,14.88
2023-05-13T20:20:52.409Z,14.83
2023-05-13T20:23:22.727Z,14.73
2023-05-13T20:26:02.817Z,14.65
2023-05-13T20:28:36.142Z,14.58
2023-05-13T20:31:08.700Z,14.53
2023-05-13T20:33:39.947Z,14.45
2023-05-13T20:36:12.629Z,14.41
2023-05-13T20:38:42.643Z,14.37
2023-05-13T20:41:12.969Z,14.30
2023-05-13T20:43:41.692Z,14.24
2023-05-13T20:46:15.387Z,14.20
2023-05-13T20:48:45.262Z,14.16
2023-05-13T20:51:14.167Z,14.12
2023-05-13T20:53:43.669Z,14.11
2023-05-13T20:56:13.194Z,14.07
2023-05-13T20:58:42.070Z,14.03
2023-05-13T21:01:13.027Z,14.01
2023-05-13T21:03:42.943Z,13.96
2023-05-13T21:06:13.962Z,13.92
2023-05-13T21:08:44.516Z,13.86
2023-05-13T21:11:13.758Z,13.85
2023-05-13T21:13:44.302Z,13.78
2023-05-13T21:16:13.278Z,13.74
2023-05-13T21:18:43.453Z,13.68
2023-05-13T21:21:13.765Z,13.60
2023-05-13T21:23:46.015Z,13.54
2023-05-13T21:26:15.313Z,13.51
2023-05-13T21:28:46.555Z,13.49
2023-05-13T21:31:17.091Z,13.51
2023-05-13T21:33:46.113Z,13.53
2023-05-13T21:36:15.448Z,13.53
2023-05-13T21:38:44.323Z,13.54
2023-05-13T21:41:13.264Z,13.52
2023-05-13T21:43:42.877Z,13.51
2023-05-13T21:46:13.372Z,13.51
2023-05-13T21:48:42.872Z,13.45
2023-05-13T21:51:11.962Z,13.38
2023-05-13T21:53:40.846Z,13.35
2023-05-13T21:56:09.600Z,13.30
2023-05-13T21:58:38.816Z,13.21
2023-05-13T22:01:08.806Z,13.10
2023-05-13T22:03:38.025Z,12.98
2023-05-13T22:06:08.452Z,12.85
2023-05-13T22:08:38.263Z,12.70
2023-05-13T22:11:09.472Z,12.60
2023-05-13T22:13:39.692Z,12.49
2023-05-13T22:16:11.267Z,12.40
2023-05-13T22:18:41.099Z,12.31
2023-05-13T22:21:12.258Z,12.23
2023-05-13T22:23:41.185Z,12.10
2023-05-13T22:26:10.393Z,12.03
2023-05-13T22:28:39.713Z,11.99
2023-05-13T22:31:09.122Z,11.94
2023-05-13T22:33:41.838Z,11.89
2023-05-13T22:36:11.936Z,11.87
2023-05-13T22:38:41.777Z,11.90
2023-05-13T22:41:12.080Z,11.94
2023-05-13T22:43:44.029Z,11.93
2023-05-13T22:46:13.195Z,11.90
2023-05-13T22:48:42.047Z,11.81
2023-05-13T22:51:11.570Z,11.78
2023-05-13T22:53:42.764Z,11.74
2023-05-13T22:56:13.254Z,11.67
2023-05-13T22:58:41.972Z,11.61
2023-05-13T23:01:11.048Z,11.54
2023-05-13T23:03:41.256Z,11.48
2023-05-13T23:06:11.500Z,11.41
2023-05-13T23:08:40.671Z,11.39
2023-05-13T23:11:09.930Z,11.41
2023-05-13T23:13:40.528Z,11.41
2023-05-13T23:16:09.714Z,11.40
2023-05-13T23:18:39.795Z,11.38
2023-05-13T23:21:09.528Z,11.32
2023-05-13T23:23:40.170Z,11.29
2023-05-13T23:26:10.537Z,11.30
2023-05-13T23:28:39.427Z,11.32
2023-05-13T23:31:08.651Z,11.34
2023-05-13T23:33:37.745Z,11.40
2023-05-13T23:36:07.405Z,11.44
2023-05-13T23:38:38.108Z,11.44
2023-05-13T23:41:06.784Z,11.47
2023-05-13T23:43:37.664Z,11.49
2023-05-13T23:46:06.370Z,11.49
2023-05-13T23:48:36.911Z,11.47
2023-05-13T23:51:07.096Z,11.43
2023-05-13T23:53:35.996Z,11.38
2023-05-13T23:56:08.487Z,11.34
2023-05-13T23:58:37.132Z,11.30
